Terminal Aerodrome Forecast
Issued by NWS

Home | Current Version | Previous Version | Text Only | Print | Product List | Glossary On
Versions: 1 2 3 4 5 6 7 8 9 10 11 12 13
000
FTUS45 KTFX 210500
TAFCTB
TAF
KCTB 210532Z 2106/2206 18009KT P6SM SCT080 BKN120
     FM210800 23013G19KT P6SM VCSH SCT050 OVC080
     FM211200 26025G35KT P6SM SCT080 OVC110
     FM212000 28020G28KT P6SM BKN100=

USA.gov is the U.S. government's official web portal to all federal, state and local government web resources and services.